createdAt,value
2017-08-02T00:00:51.241Z,14.47
2017-08-02T00:03:31.418Z,16.53
2017-08-02T00:06:06.942Z,18.30
2017-08-02T00:08:42.985Z,14.93
2017-08-02T00:11:14.291Z,15.00
2017-08-02T00:13:45.711Z,19.03
2017-08-02T00:16:17.530Z,19.73
2017-08-02T00:18:48.605Z,17.67
2017-08-02T00:21:20.294Z,16.40
2017-08-02T00:23:51.376Z,14.87
2017-08-02T00:26:22.422Z,15.93
2017-08-02T00:28:53.947Z,15.20
2017-08-02T00:31:25.011Z,14.60
2017-08-02T00:33:56.023Z,18.83
2017-08-02T00:36:27.570Z,14.33
2017-08-02T00:38:58.623Z,16.97
2017-08-02T00:41:29.826Z,17.07
2017-08-02T00:44:01.310Z,23.00
2017-08-02T00:46:32.412Z,17.63
2017-08-02T00:49:03.482Z,14.70
2017-08-02T00:51:35.303Z,23.70
2017-08-02T00:54:07.609Z,15.13
2017-08-02T00:56:39.110Z,10.73
2017-08-02T00:59:11.079Z,14.60
2017-08-02T01:01:44.671Z,20.63
2017-08-02T01:04:16.183Z,11.80
2017-08-02T01:06:47.436Z,16.50
2017-08-02T01:09:18.882Z,12.40
2017-08-02T01:11:50.620Z,11.83
2017-08-02T01:14:24.546Z,23.10
2017-08-02T01:17:00.534Z,17.10
2017-08-02T01:19:32.878Z,12.67
2017-08-02T01:22:07.372Z,17.17
2017-08-02T01:24:39.509Z,24.03
2017-08-02T01:27:12.269Z,19.33
2017-08-02T01:29:46.445Z,13.37
2017-08-02T01:32:21.445Z,15.23
2017-08-02T01:34:53.818Z,12.83
2017-08-02T01:37:27.412Z,17.43
2017-08-02T01:40:07.801Z,16.90
2017-08-02T01:42:43.351Z,12.00
2017-08-02T01:45:16.253Z,11.63
2017-08-02T01:47:49.121Z,11.33
2017-08-02T01:50:21.831Z,10.30
2017-08-02T01:52:55.024Z,10.17
2017-08-02T01:55:26.980Z,18.03
2017-08-02T01:57:59.195Z,11.00
2017-08-02T02:00:32.521Z,11.87
2017-08-02T02:03:07.053Z,14.50
2017-08-02T02:05:40.218Z,16.13
2017-08-02T02:08:11.792Z,16.27
2017-08-02T02:10:43.427Z,13.23
2017-08-02T02:16:12.241Z,10.30
2017-08-02T02:18:45.715Z,11.93
2017-08-02T02:21:17.423Z,14.77
2017-08-02T02:23:48.791Z,7.43
2017-08-02T02:26:19.888Z,8.00
2017-08-02T02:28:51.952Z,8.13
2017-08-02T02:31:23.073Z,9.47
2017-08-02T02:33:54.104Z,8.07
2017-08-02T02:36:25.147Z,8.90
2017-08-02T02:38:56.469Z,8.03
2017-08-02T02:41:27.538Z,14.00
2017-08-02T02:43:58.574Z,8.00
2017-08-02T02:46:30.181Z,15.57
2017-08-02T02:49:01.269Z,12.63
2017-08-02T02:51:32.328Z,12.20
2017-08-02T02:54:06.860Z,9.77
2017-08-02T02:56:38.009Z,10.50
2017-08-02T02:59:09.073Z,9.80
2017-08-02T03:01:40.124Z,13.63
2017-08-02T03:04:11.233Z,10.30
2017-08-02T03:06:42.271Z,15.93
2017-08-02T03:09:13.664Z,12.40
2017-08-02T03:11:44.862Z,8.53
2017-08-02T03:14:15.907Z,12.33
2017-08-02T03:16:47.045Z,16.27
2017-08-02T03:19:18.133Z,12.87
2017-08-02T03:21:49.215Z,13.03
2017-08-02T03:24:20.579Z,12.57
2017-08-02T03:26:51.650Z,17.67
2017-08-02T03:29:22.765Z,26.13
2017-08-02T03:31:54.118Z,18.83
2017-08-02T03:34:25.176Z,19.67
2017-08-02T03:36:56.770Z,21.20
2017-08-02T03:39:27.800Z,18.53
2017-08-02T03:41:58.854Z,15.43
2017-08-02T03:44:29.895Z,14.13
2017-08-02T03:47:00.972Z,17.03
2017-08-02T03:49:32.293Z,17.67
2017-08-02T03:52:04.178Z,19.77
2017-08-02T03:54:35.217Z,25.70
2017-08-02T03:57:06.274Z,12.90
2017-08-02T03:59:37.591Z,11.23
2017-08-02T04:02:08.680Z,10.40
2017-08-02T04:04:39.698Z,12.40
2017-08-02T04:07:11.039Z,19.70
2017-08-02T04:09:42.122Z,13.50
2017-08-02T04:12:13.198Z,12.03
2017-08-02T04:14:44.594Z,15.70
2017-08-02T04:17:15.658Z,10.67
2017-08-02T04:19:46.727Z,14.90
2017-08-02T04:22:17.922Z,22.10
2017-08-02T04:24:50.271Z,16.00
2017-08-02T04:27:21.336Z,20.07
2017-08-02T04:29:52.370Z,17.60
2017-08-02T04:32:23.410Z,14.80
2017-08-02T04:34:54.473Z,16.73
2017-08-02T04:37:25.641Z,16.87
2017-08-02T04:39:57.002Z,26.10
2017-08-02T04:42:28.114Z,15.37
2017-08-02T04:44:59.283Z,13.83
2017-08-02T04:47:30.395Z,13.37
2017-08-02T04:50:02.903Z,17.13
2017-08-02T04:52:34.580Z,13.37
2017-08-02T04:55:05.825Z,18.33
2017-08-02T04:57:37.125Z,10.87
2017-08-02T05:00:08.236Z,15.00
2017-08-02T05:02:39.370Z,13.47
2017-08-02T05:05:11.193Z,9.30
2017-08-02T05:07:42.301Z,8.67
2017-08-02T05:10:13.594Z,10.70
2017-08-02T05:12:45.044Z,10.80
2017-08-02T05:15:16.281Z,10.40
2017-08-02T05:17:48.777Z,10.23
2017-08-02T05:20:19.819Z,8.93
2017-08-02T05:22:50.883Z,7.70
2017-08-02T05:25:22.249Z,6.20
2017-08-02T05:27:53.316Z,6.93
2017-08-02T05:30:24.357Z,11.93
2017-08-02T05:32:55.887Z,14.93
2017-08-02T05:35:27.168Z,10.10
2017-08-02T05:37:58.684Z,10.07
2017-08-02T05:40:30.194Z,7.93
2017-08-02T05:43:02.730Z,6.63
2017-08-02T05:45:34.291Z,9.50
2017-08-02T05:48:07.551Z,7.03
2017-08-02T05:53:35.956Z,9.73
2017-08-02T05:56:12.351Z,14.50
2017-08-02T05:58:45.180Z,9.97
2017-08-02T06:01:16.271Z,7.10
2017-08-02T06:03:47.699Z,9.40
2017-08-02T06:06:20.727Z,16.77
2017-08-02T06:08:52.297Z,13.37
2017-08-02T06:11:23.807Z,9.23
2017-08-02T06:13:55.946Z,9.40
2017-08-02T06:16:31.623Z,7.93
2017-08-02T06:19:11.395Z,9.00
2017-08-02T06:21:45.976Z,14.13
2017-08-02T06:24:19.195Z,9.00
2017-08-02T06:26:51.389Z,13.03
2017-08-02T06:29:26.516Z,13.53
2017-08-02T06:31:59.779Z,6.97
2017-08-02T06:34:33.591Z,19.77
2017-08-02T06:37:12.726Z,8.57
2017-08-02T06:39:45.513Z,9.97
2017-08-02T06:42:18.180Z,9.23
2017-08-02T06:44:52.692Z,14.57
2017-08-02T06:47:32.731Z,11.47
2017-08-02T06:50:14.188Z,16.53
2017-08-02T06:52:47.557Z,23.60
2017-08-02T06:55:22.985Z,23.50
2017-08-02T06:57:56.230Z,16.00
2017-08-02T07:00:29.729Z,20.20
2017-08-02T07:03:04.771Z,16.70
2017-08-02T07:05:38.646Z,17.10
2017-08-02T07:08:13.193Z,9.00
2017-08-02T07:10:47.420Z,11.70
2017-08-02T07:13:21.488Z,16.90
2017-08-02T07:15:55.547Z,9.63
2017-08-02T07:18:27.700Z,12.40
2017-08-02T07:21:03.808Z,8.30
2017-08-02T07:23:36.583Z,7.70
2017-08-02T07:26:14.747Z,7.60
2017-08-02T07:28:48.520Z,7.70
2017-08-02T07:31:22.796Z,6.20
2017-08-02T07:33:56.218Z,11.73
2017-08-02T07:36:30.472Z,5.90
2017-08-02T07:39:03.206Z,4.33
2017-08-02T07:41:34.716Z,3.67
2017-08-02T07:44:09.435Z,4.40
2017-08-02T07:46:45.869Z,5.60
2017-08-02T07:49:20.512Z,10.50
2017-08-02T07:51:52.355Z,7.83
2017-08-02T07:54:28.097Z,9.03
2017-08-02T07:57:06.118Z,8.13
2017-08-02T07:59:41.672Z,8.93
2017-08-02T08:02:19.171Z,6.97
2017-08-02T08:04:51.732Z,7.60
2017-08-02T08:07:26.349Z,15.10
2017-08-02T08:10:00.146Z,9.20
2017-08-02T08:12:32.524Z,5.00
2017-08-02T08:15:07.230Z,9.20
2017-08-02T08:17:41.583Z,5.33
2017-08-02T08:20:17.857Z,10.37
2017-08-02T08:22:50.128Z,12.23
2017-08-02T08:25:24.857Z,5.13
2017-08-02T08:28:04.694Z,10.50
2017-08-02T08:30:40.769Z,4.93
2017-08-02T08:33:19.288Z,6.00
2017-08-02T08:35:58.209Z,6.57
2017-08-02T08:38:32.891Z,4.67
2017-08-02T08:41:19.412Z,5.77
2017-08-02T08:43:56.808Z,10.40
2017-08-02T08:46:31.090Z,5.07
2017-08-02T08:49:11.510Z,7.17
2017-08-02T08:51:46.368Z,8.23
2017-08-02T08:57:47.685Z,6.10
2017-08-02T09:00:21.467Z,4.93
2017-08-02T09:02:54.765Z,6.33
2017-08-02T09:05:25.826Z,7.50
2017-08-02T09:07:56.907Z,2.90
2017-08-02T09:10:29.357Z,2.90
2017-08-02T09:13:00.515Z,5.10
2017-08-02T09:15:31.735Z,3.90
2017-08-02T09:18:03.434Z,8.00
2017-08-02T09:20:34.515Z,15.43
2017-08-02T09:23:06.260Z,6.57
2017-08-02T09:25:38.184Z,5.20
2017-08-02T09:28:09.674Z,3.13
2017-08-02T09:30:40.792Z,5.23
2017-08-02T09:33:11.870Z,8.47
2017-08-02T09:35:43.254Z,6.30
2017-08-02T09:38:14.315Z,4.13
2017-08-02T09:40:45.424Z,10.87
2017-08-02T09:43:16.864Z,3.27
2017-08-02T09:45:47.928Z,3.57
2017-08-02T09:48:19.016Z,5.67
2017-08-02T09:50:50.377Z,3.80
2017-08-02T09:53:21.430Z,4.70
2017-08-02T09:55:52.477Z,6.20
2017-08-02T09:58:26.320Z,3.40
2017-08-02T10:00:57.583Z,8.70
2017-08-02T10:03:29.168Z,3.63
2017-08-02T10:06:04.712Z,11.30
2017-08-02T10:08:35.888Z,6.67
2017-08-02T10:11:09.906Z,3.43
2017-08-02T10:13:43.468Z,6.70
2017-08-02T10:16:15.747Z,6.40
2017-08-02T10:18:48.630Z,6.77
2017-08-02T10:21:22.297Z,4.20
2017-08-02T10:23:53.770Z,7.50
2017-08-02T10:26:24.807Z,5.10
2017-08-02T10:28:56.180Z,5.00
2017-08-02T10:31:27.765Z,3.60
2017-08-02T10:34:04.250Z,5.07
2017-08-02T10:36:36.466Z,5.00
2017-08-02T10:39:08.806Z,7.97
2017-08-02T10:41:44.127Z,8.57
2017-08-02T10:44:18.357Z,5.33
2017-08-02T10:46:49.417Z,4.00
2017-08-02T10:49:21.101Z,4.07
2017-08-02T10:51:52.108Z,3.47
2017-08-02T10:54:23.184Z,4.53
2017-08-02T10:56:54.706Z,4.30
2017-08-02T10:59:25.747Z,3.43
2017-08-02T11:01:56.805Z,4.83
2017-08-02T11:04:28.220Z,7.80
2017-08-02T11:06:59.335Z,9.20
2017-08-02T11:09:30.746Z,4.30
2017-08-02T11:12:03.574Z,3.43
2017-08-02T11:14:34.802Z,4.23
2017-08-02T11:17:06.344Z,7.57
2017-08-02T11:19:37.467Z,3.87
2017-08-02T11:22:08.577Z,6.40
2017-08-02T11:24:40.293Z,7.43
2017-08-02T11:27:11.434Z,29.70
2017-08-02T11:29:42.832Z,3.03
2017-08-02T11:32:14.025Z,5.67
2017-08-02T11:34:45.244Z,4.90
2017-08-02T11:37:16.847Z,2.80
2017-08-02T11:39:48.225Z,7.20
2017-08-02T11:42:19.610Z,3.63
2017-08-02T11:44:50.741Z,3.73
2017-08-02T11:47:21.782Z,4.47
2017-08-02T11:49:53.333Z,4.10
2017-08-02T11:52:24.369Z,2.70
2017-08-02T11:54:55.665Z,4.80
2017-08-02T11:57:26.732Z,4.40
2017-08-02T11:59:58.466Z,3.00
2017-08-02T12:02:29.810Z,9.00
2017-08-02T12:05:00.868Z,3.43
2017-08-02T12:07:32.049Z,3.93
2017-08-02T12:10:04.092Z,2.90
2017-08-02T12:12:35.250Z,4.33
2017-08-02T12:15:06.649Z,5.17
2017-08-02T12:17:37.778Z,3.13
2017-08-02T12:20:09.137Z,3.33
2017-08-02T12:22:41.768Z,7.57
2017-08-02T12:25:12.992Z,4.03
2017-08-02T12:27:44.095Z,3.33
2017-08-02T12:30:15.252Z,3.77
2017-08-02T12:32:46.511Z,3.10
2017-08-02T12:35:18.068Z,5.97
2017-08-02T12:37:49.341Z,4.80
2017-08-02T12:43:16.549Z,3.27
2017-08-02T12:45:47.773Z,3.63
2017-08-02T12:48:19.597Z,5.00
2017-08-02T12:50:51.129Z,4.10
2017-08-02T12:53:22.253Z,4.27
2017-08-02T12:55:56.045Z,4.73
2017-08-02T12:58:27.411Z,3.17
2017-08-02T13:00:59.868Z,9.10
2017-08-02T13:03:31.167Z,3.53
2017-08-02T13:06:06.012Z,3.00
2017-08-02T13:08:37.449Z,3.10
2017-08-02T13:11:08.571Z,2.93
2017-08-02T13:13:41.020Z,5.10
2017-08-02T13:16:13.530Z,8.77
2017-08-02T13:18:44.649Z,3.87
2017-08-02T13:21:16.283Z,2.63
2017-08-02T13:23:47.544Z,4.20
2017-08-02T13:26:20.376Z,6.03
2017-08-02T13:28:51.730Z,5.40
2017-08-02T13:31:22.822Z,3.60
2017-08-02T13:33:53.912Z,3.30
2017-08-02T13:36:26.860Z,3.67
2017-08-02T13:38:58.016Z,4.87
2017-08-02T13:41:29.602Z,3.17
2017-08-02T13:44:03.551Z,2.80
2017-08-02T13:46:34.700Z,9.20
2017-08-02T13:49:06.149Z,3.90
2017-08-02T13:51:37.244Z,2.50
2017-08-02T13:54:11.102Z,2.80
2017-08-02T13:56:42.875Z,2.40
2017-08-02T13:59:16.166Z,2.00
2017-08-02T14:01:47.975Z,4.00
2017-08-02T14:04:19.817Z,6.03
2017-08-02T14:06:52.028Z,2.63
2017-08-02T14:09:23.803Z,6.40
2017-08-02T14:11:55.759Z,2.23
2017-08-02T14:14:29.439Z,2.20
2017-08-02T14:17:01.625Z,8.87
2017-08-02T14:19:32.774Z,2.17
2017-08-02T14:22:06.220Z,2.90
2017-08-02T14:24:37.443Z,3.90
2017-08-02T14:27:13.442Z,2.55
2017-08-02T14:29:48.120Z,2.08
2017-08-02T14:32:20.876Z,2.12
2017-08-02T14:34:52.168Z,2.08
2017-08-02T14:37:24.959Z,3.15
2017-08-02T14:39:56.570Z,1.92
2017-08-02T14:42:27.880Z,1.80
2017-08-02T14:45:00.025Z,5.40
2017-08-02T14:47:33.549Z,2.37
2017-08-02T14:50:10.275Z,2.80
2017-08-02T14:52:42.800Z,9.32
2017-08-02T14:58:18.844Z,2.95
2017-08-02T15:00:50.107Z,11.50
2017-08-02T15:03:21.506Z,9.80
2017-08-02T15:05:53.156Z,6.60
2017-08-02T15:08:24.436Z,7.40
2017-08-02T15:10:55.632Z,4.43
2017-08-02T15:13:26.851Z,7.57
2017-08-02T15:15:58.340Z,10.85
2017-08-02T15:18:29.608Z,2.95
2017-08-02T15:21:00.935Z,2.33
2017-08-02T15:23:32.282Z,2.33
2017-08-02T15:26:05.511Z,2.00
2017-08-02T15:28:36.555Z,2.42
2017-08-02T15:31:07.907Z,2.87
2017-08-02T15:33:39.003Z,2.90
2017-08-02T15:36:10.167Z,8.75
2017-08-02T15:38:41.552Z,4.57
2017-08-02T15:41:12.904Z,2.35
2017-08-02T15:43:43.983Z,2.08
2017-08-02T15:46:15.478Z,2.22
2017-08-02T15:48:47.186Z,3.47
2017-08-02T15:51:18.259Z,2.35
2017-08-02T15:54:05.949Z,2.55
2017-08-02T15:56:38.687Z,3.40
2017-08-02T15:59:12.264Z,2.27
2017-08-02T16:01:43.726Z,2.60
2017-08-02T16:04:15.735Z,2.70
2017-08-02T16:06:47.277Z,2.57
2017-08-02T16:09:18.862Z,7.13
2017-08-02T16:11:50.292Z,4.33
2017-08-02T16:14:21.374Z,3.17
2017-08-02T16:16:52.523Z,2.30
2017-08-02T16:19:23.976Z,2.20
2017-08-02T16:21:55.647Z,2.50
2017-08-02T16:24:27.069Z,2.30
2017-08-02T16:26:58.145Z,2.40
2017-08-02T16:29:29.253Z,3.03
2017-08-02T16:32:00.377Z,4.83
2017-08-02T16:34:32.733Z,2.90
2017-08-02T16:37:06.199Z,3.83
2017-08-02T16:39:38.075Z,4.10
2017-08-02T16:42:10.705Z,5.53
2017-08-02T16:44:41.772Z,3.57
2017-08-02T16:47:12.819Z,3.53
2017-08-02T16:49:44.164Z,7.90
2017-08-02T16:52:15.241Z,3.07
2017-08-02T16:54:46.383Z,3.43
2017-08-02T16:57:17.429Z,3.80
2017-08-02T16:59:48.501Z,3.77
2017-08-02T17:02:19.652Z,5.37
2017-08-02T17:04:51.013Z,3.20
2017-08-02T17:07:22.061Z,2.77
2017-08-02T17:09:53.111Z,4.03
2017-08-02T17:12:24.181Z,3.77
2017-08-02T17:14:55.247Z,3.80
2017-08-02T17:17:26.284Z,6.43
2017-08-02T17:19:57.651Z,4.53
2017-08-02T17:22:28.715Z,6.60
2017-08-02T17:24:59.827Z,6.43
2017-08-02T17:27:30.903Z,5.53
2017-08-02T17:30:03.875Z,9.33
2017-08-02T17:32:34.957Z,4.90
2017-08-02T17:35:06.323Z,4.83
2017-08-02T17:37:37.377Z,3.73
2017-08-02T17:40:10.008Z,4.27
2017-08-02T17:42:41.344Z,6.03
2017-08-02T17:45:12.596Z,4.47
2017-08-02T17:47:43.668Z,4.97
2017-08-02T17:50:15.268Z,5.37
2017-08-02T17:52:46.372Z,16.60
2017-08-02T17:55:17.447Z,6.70
2017-08-02T17:57:48.519Z,8.20
2017-08-02T18:00:20.605Z,6.60
2017-08-02T18:02:51.722Z,7.57
2017-08-02T18:05:23.467Z,9.70
2017-08-02T18:07:55.562Z,12.30
2017-08-02T18:10:26.738Z,8.93
2017-08-02T18:12:58.206Z,13.33
2017-08-02T18:15:29.369Z,11.67
2017-08-02T18:18:00.480Z,7.90
2017-08-02T18:20:32.052Z,5.83
2017-08-02T18:23:08.053Z,11.63
2017-08-02T18:25:40.791Z,9.73
2017-08-02T18:31:08.860Z,5.10
2017-08-02T18:33:40.411Z,10.80
2017-08-02T18:36:12.681Z,10.13
2017-08-02T18:38:43.851Z,6.73
2017-08-02T18:41:15.021Z,5.80
2017-08-02T18:43:46.447Z,7.53
2017-08-02T18:46:18.584Z,7.00
2017-08-02T18:48:49.936Z,12.23
2017-08-02T18:51:21.136Z,9.40
2017-08-02T18:53:52.193Z,7.90
2017-08-02T18:56:24.633Z,9.47
2017-08-02T18:58:56.699Z,7.20
2017-08-02T19:01:27.908Z,5.70
2017-08-02T19:03:59.524Z,8.00
2017-08-02T19:06:31.176Z,4.77
2017-08-02T19:09:02.830Z,12.73
2017-08-02T19:11:34.265Z,7.87
2017-08-02T19:14:10.590Z,12.17
2017-08-02T19:16:42.536Z,8.20
2017-08-02T19:19:13.849Z,10.50
2017-08-02T19:21:45.038Z,12.27
2017-08-02T19:24:17.452Z,12.43
2017-08-02T19:26:48.724Z,27.73
2017-08-02T19:29:19.982Z,9.53
2017-08-02T19:31:51.515Z,8.13
2017-08-02T19:34:22.779Z,12.50
2017-08-02T19:36:54.415Z,7.43
2017-08-02T19:39:25.707Z,5.13
2017-08-02T19:41:57.349Z,10.63
2017-08-02T19:44:28.875Z,17.30
2017-08-02T19:47:00.342Z,20.00
2017-08-02T19:49:31.795Z,5.93
2017-08-02T19:52:04.950Z,9.63
2017-08-02T19:54:36.384Z,10.70
2017-08-02T19:57:07.494Z,19.03
2017-08-02T19:59:38.573Z,7.40
2017-08-02T20:02:10.781Z,6.20
2017-08-02T20:04:41.864Z,8.13
2017-08-02T20:07:12.949Z,12.03
2017-08-02T20:09:44.318Z,8.37
2017-08-02T20:12:16.052Z,7.70
2017-08-02T20:14:47.143Z,11.77
2017-08-02T20:17:18.521Z,15.37
2017-08-02T20:19:49.642Z,11.50
2017-08-02T20:22:22.871Z,9.40
2017-08-02T20:24:54.232Z,16.40
2017-08-02T20:27:25.421Z,10.47
2017-08-02T20:29:56.994Z,9.73
2017-08-02T20:32:28.406Z,11.80
2017-08-02T20:35:00.203Z,6.70
2017-08-02T20:37:31.581Z,9.33
2017-08-02T20:40:08.299Z,10.00
2017-08-02T20:42:39.870Z,8.40
2017-08-02T20:45:10.923Z,6.33
2017-08-02T20:47:43.054Z,12.40
2017-08-02T20:50:15.216Z,14.53
2017-08-02T20:52:47.161Z,11.80
2017-08-02T20:55:18.597Z,11.43
2017-08-02T20:57:50.032Z,6.50
2017-08-02T21:00:21.172Z,11.83
2017-08-02T21:02:53.354Z,11.60
2017-08-02T21:05:24.543Z,8.17
2017-08-02T21:07:56.036Z,10.77
2017-08-02T21:10:27.420Z,7.60
2017-08-02T21:12:58.504Z,8.00
2017-08-02T21:15:29.556Z,12.30
2017-08-02T21:18:00.950Z,9.57
2017-08-02T21:20:32.014Z,15.10
2017-08-02T21:23:03.332Z,8.90
2017-08-02T21:25:34.377Z,7.77
2017-08-02T21:28:09.855Z,7.83
2017-08-02T21:30:41.055Z,10.53
2017-08-02T21:33:12.162Z,12.03
2017-08-02T21:35:43.559Z,7.70
2017-08-02T21:38:14.785Z,12.23
2017-08-02T21:40:46.119Z,7.20
2017-08-02T21:43:18.252Z,11.70
2017-08-02T21:45:49.368Z,7.07
2017-08-02T21:48:23.760Z,9.43
2017-08-02T21:50:54.831Z,10.80
2017-08-02T21:53:25.875Z,8.07
2017-08-02T21:55:57.229Z,11.20
2017-08-02T21:58:28.288Z,8.70
2017-08-02T22:00:59.542Z,8.07
2017-08-02T22:03:30.900Z,6.73
2017-08-02T22:08:38.617Z,8.30
2017-08-02T22:11:10.701Z,12.20
2017-08-02T22:13:42.027Z,9.07
2017-08-02T22:16:13.367Z,11.43
2017-08-02T22:18:44.469Z,9.10
2017-08-02T22:21:15.864Z,6.97
2017-08-02T22:23:47.069Z,12.80
2017-08-02T22:26:21.270Z,21.77
2017-08-02T22:28:52.632Z,8.20
2017-08-02T22:31:23.880Z,6.77
2017-08-02T22:33:55.134Z,8.60
2017-08-02T22:36:26.617Z,7.20
2017-08-02T22:38:57.715Z,10.47
2017-08-02T22:41:28.844Z,6.30
2017-08-02T22:44:00.209Z,7.90
2017-08-02T22:46:31.313Z,7.37
2017-08-02T22:49:02.971Z,6.73
2017-08-02T22:51:34.088Z,11.33
2017-08-02T22:54:12.165Z,6.30
2017-08-02T22:56:43.577Z,6.03
2017-08-02T22:59:14.657Z,11.43
2017-08-02T23:01:45.704Z,6.63
2017-08-02T23:04:17.147Z,5.70
2017-08-02T23:06:48.158Z,7.20
2017-08-02T23:09:19.205Z,6.20
2017-08-02T23:11:50.545Z,6.63
2017-08-02T23:14:22.265Z,9.60
2017-08-02T23:16:53.320Z,6.20
2017-08-02T23:19:24.654Z,7.33
2017-08-02T23:21:55.802Z,9.70
2017-08-02T23:24:27.132Z,6.50
2017-08-02T23:26:58.161Z,6.43
2017-08-02T23:29:29.220Z,21.40
2017-08-02T23:32:00.736Z,10.80
2017-08-02T23:34:31.820Z,7.70
2017-08-02T23:37:03.135Z,8.90
2017-08-02T23:39:34.545Z,7.63
2017-08-02T23:42:09.401Z,7.57
2017-08-02T23:44:40.896Z,9.83
2017-08-02T23:47:11.985Z,7.20
2017-08-02T23:49:43.065Z,13.50
2017-08-02T23:52:16.579Z,10.30
2017-08-02T23:54:47.879Z,7.63
2017-08-02T23:57:20.480Z,10.30
2017-08-02T23:59:51.693Z,12.43
